Time;durP1;ratioP1;P1;durP2;ratioP2;P2;SDS_P1;SDS_P2;PMS_P1;PMS_P2;Temp;Humidity;BMP_temperature;BMP_pressure;BME280_temperature;BME280_humidity;BME280_pressure;Samples;Min_cycle;Max_cycle;Signal;HPM_P1;HPM_P2
2022/01/27 00:03:19;;;;;;;29.23;14.63;;;5.00;99.90;;;;;;4989445;28;20454;-84
2022/01/27 00:05:51;;;;;;;26.53;14.70;;;5.00;99.90;;;;;;5003161;28;20532;-82
2022/01/27 00:08:25;;;;;;;28.50;14.43;;;5.00;99.90;;;;;;4998772;28;20458;-83
2022/01/27 00:10:57;;;;;;;26.67;15.23;;;5.00;99.90;;;;;;5001469;28;20479;-79
2022/01/27 00:13:30;;;;;;;25.07;15.23;;;5.00;99.90;;;;;;4993692;28;20489;-84
2022/01/27 00:16:17;;;;;;;29.07;15.97;;;5.00;99.90;;;;;;4990449;28;20504;-84
2022/01/27 00:18:50;;;;;;;27.73;15.47;;;5.00;99.90;;;;;;4985774;28;20682;-85
2022/01/27 00:21:20;;;;;;;25.07;16.37;;;5.00;99.90;;;;;;4985036;28;20456;-82
2022/01/27 00:23:47;;;;;;;33.70;16.13;;;4.90;99.90;;;;;;4997141;28;20457;-84
2022/01/27 00:26:15;;;;;;;25.60;17.70;;;4.90;99.90;;;;;;4979512;28;20478;-83
2022/01/27 00:28:43;;;;;;;34.20;19.40;;;4.90;99.90;;;;;;4982865;28;20470;-84
2022/01/27 00:31:10;;;;;;;34.23;18.60;;;4.90;99.90;;;;;;4994865;28;20475;-80
2022/01/27 00:33:41;;;;;;;28.20;16.73;;;4.90;99.90;;;;;;4996233;28;20483;-84
2022/01/27 00:36:08;;;;;;;32.43;18.07;;;4.90;99.90;;;;;;4986369;28;20476;-85
2022/01/27 00:38:35;;;;;;;28.67;16.40;;;4.90;99.90;;;;;;4991517;28;20457;-82
2022/01/27 00:41:02;;;;;;;35.40;18.43;;;4.90;99.90;;;;;;4998542;28;20450;-81
2022/01/27 00:43:29;;;;;;;34.30;18.00;;;5.10;99.90;;;;;;4998480;28;20933;-82
2022/01/27 00:45:56;;;;;;;35.53;18.53;;;5.00;99.90;;;;;;4993955;28;20774;-83
2022/01/27 00:48:22;;;;;;;26.63;14.90;;;4.80;99.90;;;;;;4985684;28;20433;-84
2022/01/27 00:50:59;;;;;;;36.27;19.00;;;4.80;99.90;;;;;;4985388;28;20477;-80
2022/01/27 00:53:45;;;;;;;34.47;16.70;;;4.70;99.90;;;;;;4999936;28;20467;-83
2022/01/27 00:56:30;;;;;;;32.47;18.40;;;4.70;99.90;;;;;;4995114;28;20463;-86
2022/01/27 00:59:06;;;;;;;32.43;17.40;;;4.70;99.90;;;;;;4987038;28;20462;-82
2022/01/27 01:01:39;;;;;;;40.80;23.20;;;4.70;99.90;;;;;;4984143;28;20534;-83
2022/01/27 01:04:08;;;;;;;35.53;17.07;;;4.60;99.90;;;;;;4987273;28;20861;-81
2022/01/27 01:19:46;;;;;;;40.07;19.77;;;4.60;99.90;;;;;;4991100;28;20474;-84
2022/01/27 01:29:26;;;;;;;38.67;18.70;;;4.90;99.90;;;;;;4986231;28;20465;-85
2022/01/27 01:33:19;;;;;;;34.53;17.67;;;4.90;99.90;;;;;;4987180;28;20469;-84
2022/01/27 01:35:48;;;;;;;34.77;17.20;;;4.90;99.90;;;;;;5003454;28;20475;-83
2022/01/27 01:38:18;;;;;;;34.53;16.47;;;5.00;99.90;;;;;;4994604;28;20496;-83
2022/01/27 01:40:52;;;;;;;31.37;17.10;;;4.70;99.90;;;;;;4983359;28;20457;-82
2022/01/27 01:43:21;;;;;;;26.00;14.33;;;4.70;99.90;;;;;;4980696;28;20460;-82
2022/01/27 01:45:49;;;;;;;32.90;16.33;;;4.90;99.90;;;;;;4981888;28;20496;-82
2022/01/27 01:48:17;;;;;;;40.97;18.27;;;4.90;99.90;;;;;;4984090;28;20479;-84
2022/01/27 01:50:45;;;;;;;33.73;16.10;;;4.60;99.90;;;;;;4979829;28;20471;-83
2022/01/27 01:53:13;;;;;;;33.50;15.47;;;4.90;99.90;;;;;;4991214;28;20500;-83
2022/01/27 01:55:40;;;;;;;37.57;14.63;;;4.70;99.90;;;;;;4978042;28;21078;-84
2022/01/27 01:58:08;;;;;;;28.33;14.10;;;4.70;99.90;;;;;;4980503;28;20498;-84
2022/01/27 02:00:37;;;;;;;34.40;15.53;;;5.00;99.90;;;;;;4985945;28;20464;-84
2022/01/27 02:03:04;;;;;;;34.27;17.20;;;4.90;99.90;;;;;;4979638;28;20824;-83
2022/01/27 02:05:38;;;;;;;35.60;16.53;;;5.10;99.90;;;;;;4985751;28;20459;-83
2022/01/27 02:19:25;;;;;;;26.70;14.53;;;4.60;99.90;;;;;;4985132;28;20465;-83
2022/01/27 02:21:55;;;;;;;31.93;15.37;;;4.70;99.90;;;;;;4984102;28;20454;-83
2022/01/27 02:24:25;;;;;;;34.93;14.47;;;4.60;99.90;;;;;;4992413;28;20514;-84
2022/01/27 02:26:53;;;;;;;28.30;15.00;;;4.60;99.90;;;;;;4997263;28;20502;-83
2022/01/27 02:29:23;;;;;;;28.77;15.13;;;4.60;99.90;;;;;;4999553;28;20436;-85
2022/01/27 02:31:52;;;;;;;26.73;13.90;;;4.70;99.90;;;;;;4993291;28;20768;-82
2022/01/27 02:34:20;;;;;;;29.40;14.77;;;4.70;99.90;;;;;;4983412;28;20496;-82
2022/01/27 02:36:47;;;;;;;28.27;14.20;;;4.70;99.90;;;;;;4983890;28;20550;-83
2022/01/27 02:39:17;;;;;;;23.83;13.90;;;4.70;99.90;;;;;;4980229;28;20992;-80
2022/01/27 02:41:55;;;;;;;26.57;14.00;;;4.70;99.90;;;;;;4976839;28;20457;-82
2022/01/27 02:44:32;;;;;;;30.30;15.67;;;4.70;99.90;;;;;;4988620;28;20454;-82
2022/01/27 02:47:02;;;;;;;30.90;15.33;;;4.80;99.90;;;;;;4982965;28;20518;-83
2022/01/27 02:49:30;;;;;;;26.67;12.87;;;5.10;99.90;;;;;;4982079;28;20820;-83
2022/01/27 02:51:57;;;;;;;26.60;13.63;;;5.00;99.90;;;;;;4977448;28;20458;-83
2022/01/27 02:54:27;;;;;;;23.07;13.43;;;5.20;99.90;;;;;;4982015;28;20544;-83
2022/01/27 02:57:07;;;;;;;27.80;13.83;;;4.90;99.90;;;;;;4980662;28;20479;-83
2022/01/27 02:59:34;;;;;;;21.90;12.17;;;4.80;99.90;;;;;;4982179;28;21066;-83
2022/01/27 03:02:03;;;;;;;26.57;13.73;;;5.00;99.90;;;;;;4983752;28;20468;-84
2022/01/27 03:04:30;;;;;;;23.70;13.60;;;5.00;99.90;;;;;;4983546;28;20466;-84
2022/01/27 03:06:58;;;;;;;24.87;13.93;;;4.90;99.90;;;;;;4978306;28;20510;-85
2022/01/27 03:09:26;;;;;;;27.93;15.27;;;4.80;99.90;;;;;;4983167;28;20458;-84
2022/01/27 03:11:59;;;;;;;27.50;14.00;;;4.70;99.90;;;;;;4984280;28;20490;-82
2022/01/27 03:14:27;;;;;;;23.27;12.80;;;4.60;99.90;;;;;;4980410;28;20996;-83
2022/01/27 03:16:59;;;;;;;26.90;13.40;;;4.60;99.90;;;;;;4981227;28;20472;-83
2022/01/27 03:19:27;;;;;;;24.20;13.40;;;4.60;99.90;;;;;;4979642;28;20477;-83
2022/01/27 03:21:56;;;;;;;26.30;12.50;;;4.60;99.90;;;;;;4999165;28;20632;-84
2022/01/27 03:24:24;;;;;;;25.60;13.77;;;4.70;99.90;;;;;;5000411;28;20550;-85
2022/01/27 03:26:54;;;;;;;27.30;12.87;;;4.90;99.90;;;;;;4987838;28;20516;-81
2022/01/27 03:29:21;;;;;;;21.73;10.20;;;4.90;99.90;;;;;;4985937;28;20459;-83
2022/01/27 03:31:49;;;;;;;22.50;11.93;;;4.80;99.90;;;;;;4969948;28;20453;-83
2022/01/27 03:34:17;;;;;;;23.83;12.90;;;5.00;99.90;;;;;;4969735;28;20495;-82
2022/01/27 03:36:44;;;;;;;22.07;12.37;;;5.30;99.90;;;;;;4968438;28;20594;-83
2022/01/27 03:39:16;;;;;;;26.37;13.47;;;5.40;99.90;;;;;;4970410;28;20460;-83
2022/01/27 03:41:49;;;;;;;21.50;11.90;;;5.30;99.90;;;;;;4983666;28;20548;-83
2022/01/27 03:44:17;;;;;;;24.90;13.00;;;5.20;99.90;;;;;;4985151;28;20460;-83
2022/01/27 03:46:44;;;;;;;21.10;10.90;;;5.30;99.90;;;;;;4978928;28;20475;-82
2022/01/27 03:49:12;;;;;;;23.17;11.80;;;5.20;99.90;;;;;;4978709;28;20513;-84
2022/01/27 03:51:38;;;;;;;25.87;12.10;;;5.20;99.90;;;;;;4984162;28;20454;-82
2022/01/27 03:54:05;;;;;;;23.53;12.73;;;5.10;99.90;;;;;;4975728;28;20478;-85
2022/01/27 03:56:33;;;;;;;24.07;11.80;;;5.20;99.90;;;;;;4975853;28;20471;-84
2022/01/27 03:59:00;;;;;;;24.70;11.13;;;5.10;99.90;;;;;;4983306;28;20962;-84
2022/01/27 04:01:28;;;;;;;27.07;12.20;;;5.00;99.90;;;;;;4988869;28;20502;-84
2022/01/27 04:03:59;;;;;;;27.60;11.60;;;5.00;99.90;;;;;;4983494;28;20536;-84
2022/01/27 04:06:36;;;;;;;26.10;12.90;;;4.90;99.90;;;;;;4985971;28;20486;-83
2022/01/27 04:09:05;;;;;;;23.30;10.83;;;4.90;99.90;;;;;;4983110;28;21114;-84
2022/01/27 04:11:33;;;;;;;24.93;11.43;;;4.90;99.90;;;;;;4980938;28;20456;-81
2022/01/27 04:14:02;;;;;;;26.27;11.80;;;5.00;99.90;;;;;;4988295;28;20836;-84
2022/01/27 04:16:30;;;;;;;22.07;10.67;;;4.90;99.90;;;;;;4981200;28;20485;-84
2022/01/27 04:18:57;;;;;;;27.07;13.07;;;5.00;99.90;;;;;;4991761;28;21103;-83
2022/01/27 04:21:25;;;;;;;21.33;11.47;;;4.90;99.90;;;;;;4983806;28;20531;-85
2022/01/27 04:23:53;;;;;;;18.17;9.27;;;5.00;99.90;;;;;;4987000;28;20455;-83
2022/01/27 04:26:26;;;;;;;22.63;12.20;;;5.00;99.90;;;;;;4983447;28;20487;-84
2022/01/27 04:28:53;;;;;;;18.63;9.70;;;4.90;99.90;;;;;;4983153;28;20458;-82
2022/01/27 04:31:22;;;;;;;22.20;10.50;;;5.10;99.90;;;;;;4996676;28;20463;-83
2022/01/27 04:33:51;;;;;;;31.07;12.70;;;5.00;99.90;;;;;;4982130;28;20462;-84
2022/01/27 04:36:29;;;;;;;27.10;11.37;;;4.90;99.90;;;;;;4977721;28;20503;-84
2022/01/27 04:41:41;;;;;;;22.77;11.93;;;5.00;99.90;;;;;;4987336;28;20566;-85
2022/01/27 04:49:16;;;;;;;22.07;10.90;;;5.10;99.90;;;;;;4991400;28;20452;-85
2022/01/27 04:51:43;;;;;;;24.83;11.93;;;5.20;99.90;;;;;;4989187;28;20476;-84
2022/01/27 04:54:18;;;;;;;22.20;10.90;;;5.20;99.90;;;;;;4992734;28;20498;-84
2022/01/27 04:56:46;;;;;;;18.87;10.60;;;5.10;99.90;;;;;;4992072;28;20570;-82
2022/01/27 04:59:27;;;;;;;20.40;11.20;;;5.20;99.90;;;;;;4984057;28;20452;-84
2022/01/27 05:02:02;;;;;;;23.70;10.63;;;5.10;99.90;;;;;;4983500;28;20962;-84
2022/01/27 05:04:38;;;;;;;19.67;10.57;;;5.10;99.90;;;;;;4991163;28;20516;-84
2022/01/27 05:07:05;;;;;;;28.80;13.07;;;5.20;99.90;;;;;;4987673;28;20523;-84
2022/01/27 05:09:32;;;;;;;21.20;10.93;;;5.30;99.90;;;;;;4989297;28;20501;-83
2022/01/27 05:12:13;;;;;;;21.70;11.43;;;5.20;99.90;;;;;;5006165;28;20468;-84
2022/01/27 05:14:40;;;;;;;21.20;10.27;;;5.20;99.90;;;;;;5011431;28;20447;-84
2022/01/27 05:17:08;;;;;;;22.23;11.07;;;5.30;99.90;;;;;;5000083;28;20474;-84
2022/01/27 05:19:35;;;;;;;19.57;9.57;;;5.40;99.90;;;;;;5000126;28;20441;-85
2022/01/27 05:22:03;;;;;;;19.87;11.50;;;5.40;99.90;;;;;;5001928;28;20458;-84
2022/01/27 05:24:31;;;;;;;19.40;10.87;;;5.40;99.90;;;;;;4999200;28;20460;-85
2022/01/27 05:27:01;;;;;;;19.43;10.60;;;5.40;99.90;;;;;;4987752;28;20488;-84
2022/01/27 05:29:28;;;;;;;19.97;11.27;;;5.50;99.90;;;;;;4996787;28;20535;-84
2022/01/27 05:31:56;;;;;;;22.07;10.67;;;5.30;99.90;;;;;;4986901;28;20540;-83
2022/01/27 05:34:23;;;;;;;19.43;10.60;;;5.30;99.90;;;;;;4995217;28;20457;-83
2022/01/27 05:36:50;;;;;;;23.03;11.13;;;5.40;99.90;;;;;;4993630;28;20543;-82
2022/01/27 05:39:17;;;;;;;19.93;11.87;;;5.50;99.90;;;;;;4994277;28;20473;-83
2022/01/27 05:41:45;;;;;;;25.90;12.50;;;5.50;99.90;;;;;;5000161;28;20847;-81
2022/01/27 05:44:12;;;;;;;18.93;12.07;;;5.50;99.90;;;;;;4984280;28;20521;-82
2022/01/27 05:46:39;;;;;;;22.67;12.73;;;5.60;99.90;;;;;;4983993;28;20587;-83
2022/01/27 05:49:07;;;;;;;23.43;11.30;;;5.60;99.90;;;;;;4994353;28;20454;-84
2022/01/27 05:51:35;;;;;;;24.07;11.77;;;5.60;99.90;;;;;;4987769;28;20972;-83
2022/01/27 05:54:02;;;;;;;23.20;11.67;;;5.70;99.90;;;;;;4982404;28;20465;-84
2022/01/27 05:56:30;;;;;;;25.93;12.93;;;5.70;99.90;;;;;;4979860;28;20494;-84
2022/01/27 05:58:57;;;;;;;21.73;11.20;;;5.60;99.90;;;;;;4978857;28;20469;-83
2022/01/27 06:01:24;;;;;;;22.07;11.40;;;5.60;99.90;;;;;;4985638;28;20448;-83
2022/01/27 06:03:52;;;;;;;19.40;10.77;;;5.60;99.90;;;;;;4987660;28;20461;-83
2022/01/27 06:06:19;;;;;;;19.57;10.40;;;5.60;99.90;;;;;;4980951;28;20576;-83
2022/01/27 06:08:47;;;;;;;17.63;10.13;;;5.60;99.90;;;;;;4992495;28;20841;-83
2022/01/27 06:11:43;;;;;;;21.07;12.33;;;5.90;99.90;;;;;;4997137;28;20509;-84
2022/01/27 06:14:33;;;;;;;21.10;11.83;;;5.90;99.90;;;;;;4997923;28;20552;-84
2022/01/27 06:19:43;;;;;;;;;;;;;;;;;;;;;
2022/01/27 06:22:45;;;;;;;20.57;11.13;;;5.60;99.90;;;;;;4992743;28;20458;-84
2022/01/27 06:25:45;;;;;;;20.80;10.70;;;5.60;99.90;;;;;;4991210;28;20556;-84
2022/01/27 06:28:30;;;;;;;23.53;12.60;;;5.80;99.90;;;;;;4972872;28;20478;-83
2022/01/27 06:31:07;;;;;;;19.90;12.93;;;6.00;99.90;;;;;;4980174;28;20580;-83
2022/01/27 06:33:52;;;;;;;21.40;12.80;;;6.10;99.90;;;;;;4987842;28;20454;-84
2022/01/27 06:36:29;;;;;;;21.17;13.57;;;6.30;99.90;;;;;;4979669;28;20514;-83
2022/01/27 06:39:26;;;;;;;23.47;14.13;;;6.30;99.90;;;;;;4976579;28;20507;-82
2022/01/27 06:42:13;;;;;;;24.00;12.97;;;6.40;99.90;;;;;;4959750;28;20467;-82
2022/01/27 06:45:32;;;;;;;22.70;12.60;;;6.30;99.90;;;;;;4981134;28;20812;-83
2022/01/27 06:48:43;;;;;;;19.60;12.10;;;6.20;99.90;;;;;;4913975;29;20494;-84
2022/01/27 06:51:32;;;;;;;17.93;10.17;;;6.00;99.90;;;;;;4917844;29;20546;-84
2022/01/27 06:57:33;;;;;;;18.90;11.60;;;6.40;99.90;;;;;;5002425;23;20554;-82
2022/01/27 07:00:30;;;;;;;21.17;11.73;;;6.50;99.90;;;;;;4975584;28;20507;-83
2022/01/27 07:03:06;;;;;;;17.40;11.17;;;6.50;99.90;;;;;;4986938;28;20456;-83
2022/01/27 07:06:22;;;;;;;17.00;10.33;;;6.10;99.90;;;;;;4982214;28;20533;-84
2022/01/27 07:08:58;;;;;;;20.90;13.20;;;6.50;99.90;;;;;;4955360;28;20459;-82
2022/01/27 07:11:39;;;;;;;21.03;11.30;;;6.40;99.90;;;;;;4950065;28;20506;-83
2022/01/27 07:14:14;;;;;;;20.07;12.23;;;6.30;99.90;;;;;;4954558;29;20784;-83
2022/01/27 07:16:44;;;;;;;17.77;11.50;;;6.60;99.90;;;;;;4952141;28;20501;-83
2022/01/27 07:19:25;;;;;;;19.00;12.30;;;6.40;99.90;;;;;;4949556;29;20472;-83
2022/01/27 07:22:19;;;;;;;22.93;11.57;;;6.50;99.90;;;;;;4951609;29;20866;-83
2022/01/27 07:25:06;;;;;;;21.07;11.70;;;6.40;99.90;;;;;;4954197;28;20469;-84
2022/01/27 07:28:12;;;;;;;19.33;11.47;;;6.70;99.90;;;;;;4884899;29;20480;-84
2022/01/27 07:30:57;;;;;;;20.37;11.80;;;6.40;99.90;;;;;;4965986;28;20453;-83
2022/01/27 07:33:54;;;;;;;19.57;11.87;;;6.40;99.90;;;;;;4960718;28;20491;-84
2022/01/27 07:36:36;;;;;;;18.67;11.80;;;6.50;99.90;;;;;;5051445;23;20555;-82
2022/01/27 07:39:19;;;;;;;21.03;11.27;;;6.50;99.90;;;;;;4990851;28;20462;-83
2022/01/27 07:42:01;;;;;;;21.83;13.20;;;6.80;99.90;;;;;;4984671;28;20502;-84
2022/01/27 07:45:01;;;;;;;17.27;11.33;;;6.90;99.90;;;;;;4994556;28;20438;-84
2022/01/27 07:47:42;;;;;;;25.13;12.37;;;7.10;99.90;;;;;;4996872;28;20502;-83
2022/01/27 07:50:43;;;;;;;21.83;12.77;;;7.10;99.90;;;;;;5014765;28;20461;-82
2022/01/27 07:53:27;;;;;;;18.80;12.00;;;6.90;99.90;;;;;;4983295;28;20681;-82
2022/01/27 07:56:29;;;;;;;19.70;11.83;;;7.30;99.90;;;;;;4979766;28;20506;-86
2022/01/27 07:59:32;;;;;;;19.40;11.43;;;7.50;99.90;;;;;;4957236;29;21073;-85
2022/01/27 08:02:39;;;;;;;21.17;11.70;;;6.90;99.90;;;;;;4962644;28;20934;-83
2022/01/27 08:05:56;;;;;;;21.77;11.23;;;7.00;99.90;;;;;;4971012;28;20508;-83
2022/01/27 08:08:50;;;;;;;20.03;12.47;;;6.80;99.90;;;;;;4977703;28;20484;-81
2022/01/27 08:11:23;;;;;;;19.53;13.20;;;7.00;99.90;;;;;;4995436;28;20458;-85
2022/01/27 08:13:57;;;;;;;18.20;11.17;;;7.20;99.90;;;;;;4994235;28;20456;-85
2022/01/27 08:16:46;;;;;;;29.20;14.60;;;7.70;99.90;;;;;;4977577;28;20488;-83
2022/01/27 08:19:25;;;;;;;21.47;12.83;;;7.40;99.90;;;;;;4975303;28;20457;-84
2022/01/27 08:21:58;;;;;;;28.50;13.83;;;7.60;99.90;;;;;;4975837;28;20471;-83
2022/01/27 08:28:05;;;;;;;20.00;12.63;;;8.10;99.90;;;;;;4966722;28;20488;-84
2022/01/27 08:30:53;;;;;;;23.03;13.40;;;7.60;99.90;;;;;;4969505;28;21294;-84
2022/01/27 08:33:33;;;;;;;23.57;12.50;;;7.30;99.90;;;;;;4977348;28;20652;-83
2022/01/27 08:36:27;;;;;;;18.93;11.27;;;7.60;99.90;;;;;;4979863;28;20475;-85
2022/01/27 08:39:30;;;;;;;24.13;13.13;;;7.40;99.90;;;;;;4986360;28;20934;-84
2022/01/27 08:42:44;;;;;;;23.37;12.80;;;7.40;99.90;;;;;;4972437;28;20452;-84
2022/01/27 08:45:30;;;;;;;20.00;12.90;;;7.30;99.90;;;;;;4955231;28;20462;-84
2022/01/27 08:48:09;;;;;;;20.60;11.83;;;7.10;99.90;;;;;;4967504;28;20533;-83
2022/01/27 08:51:00;;;;;;;19.60;12.33;;;7.00;99.90;;;;;;4880840;29;20544;-81
2022/01/27 08:53:50;;;;;;;22.30;12.03;;;7.10;99.90;;;;;;4868403;29;20486;-84
2022/01/27 08:56:37;;;;;;;19.27;12.60;;;7.10;99.90;;;;;;4913434;29;20483;-83
2022/01/27 08:59:23;;;;;;;20.87;13.40;;;7.00;99.90;;;;;;4891499;29;20461;-84
2022/01/27 09:02:07;;;;;;;15.30;11.20;;;7.10;99.90;;;;;;4877837;29;20544;-83
2022/01/27 09:04:42;;;;;;;25.43;14.07;;;7.50;99.90;;;;;;4898447;29;20459;-85
2022/01/27 09:07:55;;;;;;;24.17;13.13;;;7.30;99.90;;;;;;4896596;29;20569;-83
2022/01/27 09:10:46;;;;;;;22.20;12.13;;;7.20;99.90;;;;;;4888503;29;20653;-84
2022/01/27 09:13:37;;;;;;;21.00;11.20;;;7.20;99.90;;;;;;4884571;29;20492;-84
2022/01/27 09:23:12;;;;;;;23.73;11.43;;;7.20;99.90;;;;;;4968716;28;21248;-85
2022/01/27 09:26:02;;;;;;;18.60;11.60;;;7.20;99.90;;;;;;4967506;28;20452;-84
2022/01/27 09:28:52;;;;;;;;;;;;;;;;;;;;;
2022/01/27 09:31:39;;;;;;;20.00;11.30;;;7.20;99.90;;;;;;4969833;28;20452;-83
2022/01/27 09:34:11;;;;;;;20.03;11.10;;;7.20;99.90;;;;;;4970957;28;20469;-84
2022/01/27 09:36:46;;;;;;;20.00;10.83;;;7.70;99.90;;;;;;4970510;28;20480;-83
2022/01/27 09:39:25;;;;;;;24.60;11.87;;;7.20;99.90;;;;;;4974574;28;21018;-85
2022/01/27 09:42:01;;;;;;;22.57;12.90;;;7.20;99.90;;;;;;4971802;28;20909;-85
2022/01/27 09:44:43;;;;;;;;;;;;;;;;;;;;;
2022/01/27 09:47:25;;;;;;;21.40;12.40;;;7.30;99.90;;;;;;4987860;28;20484;-83
2022/01/27 09:50:05;;;;;;;22.40;12.10;;;7.30;99.90;;;;;;4982548;28;20456;-84
2022/01/27 09:52:46;;;;;;;21.40;12.73;;;7.20;99.90;;;;;;4980502;28;20453;-82
2022/01/27 09:55:50;;;;;;;16.67;11.90;;;7.20;99.90;;;;;;4972910;28;20567;-80
2022/01/27 09:58:34;;;;;;;19.30;12.40;;;7.10;99.90;;;;;;4970329;28;20461;-82
2022/01/27 10:01:09;;;;;;;19.17;12.50;;;7.10;99.90;;;;;;4970840;28;20488;-82
2022/01/27 10:04:14;;;;;;;20.17;12.70;;;7.50;99.90;;;;;;4973107;28;20583;-82
2022/01/27 10:07:05;;;;;;;17.80;11.57;;;7.20;99.90;;;;;;4973654;28;20511;-83
2022/01/27 10:10:08;;;;;;;20.33;11.33;;;7.20;99.90;;;;;;4978584;28;21711;-82
2022/01/27 10:12:56;;;;;;;20.23;11.80;;;7.10;99.90;;;;;;5005756;28;20459;-82
2022/01/27 10:15:49;;;;;;;26.00;12.93;;;7.20;99.90;;;;;;4982176;28;20480;-80
2022/01/27 10:18:35;;;;;;;17.20;11.23;;;7.10;99.90;;;;;;4975475;28;20469;-81
2022/01/27 10:21:19;;;;;;;;;;;;;;;;;;;;;
2022/01/27 10:24:12;;;;;;;20.37;12.30;;;7.10;99.90;;;;;;4981414;28;20555;-82
2022/01/27 10:33:27;;;;;;;16.70;11.27;;;7.30;99.90;;;;;;4971529;28;20761;-84
2022/01/27 10:36:26;;;;;;;13.97;10.47;;;7.20;99.90;;;;;;4994990;28;20480;-84
2022/01/27 10:39:20;;;;;;;17.07;10.40;;;7.20;99.90;;;;;;4955137;28;20582;-85
2022/01/27 10:42:26;;;;;;;15.97;10.87;;;7.20;99.90;;;;;;4964611;28;20455;-83
2022/01/27 10:45:09;;;;;;;18.80;11.00;;;7.20;99.90;;;;;;4966011;28;20998;-82
2022/01/27 10:47:49;;;;;;;15.60;10.97;;;7.20;99.90;;;;;;4967186;28;20484;-84
2022/01/27 10:50:32;;;;;;;15.17;11.03;;;7.10;99.90;;;;;;4964930;28;20594;-84
2022/01/27 10:53:10;;;;;;;13.63;9.60;;;7.20;99.90;;;;;;4979938;28;20452;-83
2022/01/27 10:55:47;;;;;;;15.60;9.93;;;7.50;99.90;;;;;;4978280;28;20503;-80
2022/01/27 10:58:31;;;;;;;16.20;10.00;;;7.20;99.90;;;;;;4994357;28;20489;-85
2022/01/27 11:01:33;;;;;;;17.60;10.40;;;7.60;99.90;;;;;;4982333;28;20521;-83
2022/01/27 11:07:28;;;;;;;15.30;9.20;;;7.50;99.90;;;;;;4978826;28;20466;-81
2022/01/27 11:10:49;;;;;;;12.73;8.50;;;7.30;99.90;;;;;;4980858;28;20507;-83
2022/01/27 11:13:49;;;;;;;12.90;8.27;;;7.20;99.90;;;;;;5010467;28;20444;-82
2022/01/27 11:16:38;;;;;;;13.07;8.77;;;7.40;99.90;;;;;;4985069;28;20489;-82
2022/01/27 11:19:57;;;;;;;12.10;9.03;;;7.40;99.90;;;;;;4982228;28;20515;-84
2022/01/27 11:26:10;;;;;;;11.40;8.20;;;7.40;99.90;;;;;;4952817;28;20456;-85
2022/01/27 11:28:59;;;;;;;13.70;8.30;;;7.40;99.90;;;;;;4987435;28;20513;-84
2022/01/27 11:32:16;;;;;;;11.17;8.00;;;7.70;99.90;;;;;;4965966;28;20527;-84
2022/01/27 11:35:24;;;;;;;12.30;8.30;;;7.50;99.90;;;;;;4972945;28;20520;-84
2022/01/27 11:38:04;;;;;;;11.30;7.87;;;7.50;99.90;;;;;;4971109;28;20531;-84
2022/01/27 11:40:48;;;;;;;13.37;8.00;;;7.50;99.90;;;;;;4971298;28;20545;-84
2022/01/27 11:43:42;;;;;;;9.97;6.80;;;7.60;99.90;;;;;;4971970;28;20876;-85
2022/01/27 11:46:29;;;;;;;10.50;7.07;;;7.80;99.90;;;;;;4973240;28;20576;-83
2022/01/27 11:50:17;;;;;;;8.37;6.50;;;7.40;99.90;;;;;;4962474;28;20457;-84
2022/01/27 11:52:56;;;;;;;8.43;6.30;;;7.50;99.90;;;;;;4973669;28;20453;-84
2022/01/27 11:56:16;;;;;;;8.83;6.17;;;7.60;99.90;;;;;;4972472;28;20471;-84
2022/01/27 11:59:00;;;;;;;8.80;6.30;;;7.60;99.90;;;;;;4984439;28;20488;-84
2022/01/27 12:02:14;;;;;;;8.73;6.43;;;7.50;99.90;;;;;;4970150;28;20459;-84
2022/01/27 12:05:25;;;;;;;11.70;6.80;;;7.60;99.90;;;;;;4954115;28;20461;-83
2022/01/27 12:08:30;;;;;;;8.60;5.77;;;7.60;99.90;;;;;;4955311;28;20480;-85
2022/01/27 12:11:56;;;;;;;8.10;6.03;;;7.60;99.90;;;;;;4967163;28;20469;-82
2022/01/27 12:17:42;;;;;;;8.30;6.33;;;7.70;99.90;;;;;;4975593;28;20562;-82
2022/01/27 12:20:50;;;;;;;12.50;6.17;;;8.00;99.90;;;;;;4978690;28;20449;-84
2022/01/27 12:24:02;;;;;;;9.33;7.10;;;7.70;99.90;;;;;;4977352;28;20472;-84
2022/01/27 12:27:00;;;;;;;9.50;6.13;;;7.70;99.90;;;;;;4987602;28;20492;-82
2022/01/27 12:30:03;;;;;;;12.30;6.10;;;7.70;99.90;;;;;;4969884;28;20541;-82
2022/01/27 12:32:50;;;;;;;9.80;6.33;;;7.60;99.90;;;;;;4977897;28;20475;-82
2022/01/27 12:35:31;;;;;;;6.90;6.03;;;7.60;99.90;;;;;;4981164;28;20588;-81
2022/01/27 12:38:07;;;;;;;7.27;4.83;;;7.60;99.90;;;;;;4969934;28;20488;-81
2022/01/27 12:41:06;;;;;;;9.00;6.10;;;7.60;99.90;;;;;;4971497;28;20456;-83
2022/01/27 12:43:40;;;;;;;6.33;5.50;;;7.60;99.90;;;;;;4967665;28;20457;-81
2022/01/27 12:46:27;;;;;;;7.47;5.50;;;7.40;99.90;;;;;;4968427;28;20482;-83
2022/01/27 12:49:05;;;;;;;7.40;5.90;;;7.90;99.90;;;;;;4968049;28;20493;-81
2022/01/27 12:52:48;;;;;;;6.23;4.80;;;7.70;99.90;;;;;;4967920;28;20846;-82
2022/01/27 12:55:52;;;;;;;5.73;5.00;;;7.60;99.90;;;;;;4968056;28;20495;-83
2022/01/27 12:58:41;;;;;;;5.77;5.17;;;8.00;99.90;;;;;;4982235;28;20520;-84
2022/01/27 13:01:42;;;;;;;8.03;5.17;;;7.70;99.90;;;;;;4994698;28;20544;-83
2022/01/27 13:04:36;;;;;;;9.70;5.43;;;7.90;99.90;;;;;;4966668;28;20506;-84
2022/01/27 13:07:21;;;;;;;5.70;5.13;;;7.60;99.90;;;;;;4968481;28;20580;-85
2022/01/27 13:10:10;;;;;;;5.70;4.47;;;7.70;99.90;;;;;;4967476;28;20488;-84
2022/01/27 13:13:10;;;;;;;8.60;5.43;;;7.70;99.90;;;;;;4966255;28;20465;-83
2022/01/27 13:15:44;;;;;;;6.17;4.70;;;7.80;99.90;;;;;;4966581;28;20540;-83
2022/01/27 13:18:35;;;;;;;6.40;4.97;;;7.80;99.90;;;;;;4965309;28;20582;-84
2022/01/27 13:21:42;;;;;;;4.20;3.80;;;8.20;99.90;;;;;;4978532;28;20460;-82
2022/01/27 13:24:21;;;;;;;5.80;4.27;;;7.80;99.90;;;;;;4964149;28;20462;-84
2022/01/27 13:27:21;;;;;;;4.67;4.20;;;8.10;99.90;;;;;;4966240;28;20488;-83
2022/01/27 13:30:06;;;;;;;3.67;3.37;;;7.90;99.90;;;;;;4966271;28;20864;-84
2022/01/27 13:33:01;;;;;;;5.53;3.90;;;7.90;99.90;;;;;;4963699;28;20548;-83
2022/01/27 13:35:40;;;;;;;3.93;3.63;;;7.90;99.90;;;;;;4964428;28;20503;-82
2022/01/27 13:38:38;;;;;;;3.80;3.40;;;7.90;99.90;;;;;;4971753;28;20539;-82
2022/01/27 13:41:43;;;;;;;5.63;4.40;;;8.00;99.90;;;;;;4962621;28;20459;-82
2022/01/27 13:45:00;;;;;;;5.47;3.83;;;8.00;99.90;;;;;;4950054;28;20466;-84
2022/01/27 13:48:22;;;;;;;3.77;3.40;;;8.00;99.90;;;;;;4972185;28;20495;-81
2022/01/27 13:50:58;;;;;;;6.00;3.83;;;8.00;99.90;;;;;;4969277;28;20475;-83
2022/01/27 13:53:56;;;;;;;3.90;3.10;;;8.10;99.90;;;;;;4965329;28;20480;-82
2022/01/27 13:57:11;;;;;;;5.37;3.40;;;8.10;99.90;;;;;;4975570;28;20479;-82
2022/01/27 14:00:12;;;;;;;4.90;4.07;;;8.10;99.90;;;;;;4967165;28;20511;-85
2022/01/27 14:02:55;;;;;;;3.70;3.40;;;8.10;99.90;;;;;;4956749;28;20453;-83
2022/01/27 14:06:01;;;;;;;3.43;2.90;;;8.10;99.90;;;;;;4935922;28;20461;-82
2022/01/27 14:08:58;;;;;;;3.83;3.50;;;8.20;99.90;;;;;;4944631;28;20461;-83
2022/01/27 14:11:34;;;;;;;3.47;3.17;;;8.10;99.90;;;;;;4962238;28;20456;-83
2022/01/27 14:15:00;;;;;;;;;;;;;;;;;;;;;
2022/01/27 14:18:01;;;;;;;3.70;3.40;;;8.00;99.90;;;;;;4966937;28;20502;-82
2022/01/27 14:20:58;;;;;;;4.00;3.37;;;8.20;99.90;;;;;;4989444;28;20463;-83
2022/01/27 14:24:07;;;;;;;4.63;3.90;;;8.20;99.90;;;;;;4992044;28;20578;-83
2022/01/27 14:27:04;;;;;;;4.23;3.90;;;8.20;99.90;;;;;;4967145;28;20931;-83
2022/01/27 14:29:41;;;;;;;3.93;3.27;;;8.30;99.90;;;;;;4969772;28;20499;-84
2022/01/27 14:32:18;;;;;;;5.10;4.60;;;8.30;99.90;;;;;;4978372;28;20547;-82
2022/01/27 14:34:52;;;;;;;5.43;4.77;;;8.70;99.90;;;;;;4979842;28;21186;-85
2022/01/27 14:37:57;;;;;;;4.60;4.20;;;8.30;99.90;;;;;;4975115;28;20504;-83
2022/01/27 14:40:34;;;;;;;6.27;4.80;;;8.30;99.90;;;;;;4979719;28;20539;-85
2022/01/27 14:43:10;;;;;;;7.17;4.27;;;8.30;99.90;;;;;;4982852;28;20452;-83
2022/01/27 14:45:58;;;;;;;5.20;4.70;;;8.60;99.90;;;;;;4990168;28;20460;-83
2022/01/27 14:48:54;;;;;;;5.37;4.30;;;8.30;99.90;;;;;;4990712;28;20449;-83
2022/01/27 14:51:44;;;;;;;5.03;4.53;;;8.30;99.90;;;;;;4984045;28;20575;-82
2022/01/27 14:54:39;;;;;;;6.07;4.70;;;8.30;99.90;;;;;;4976081;28;20973;-83
2022/01/27 14:57:27;;;;;;;6.07;4.50;;;8.40;99.90;;;;;;4972938;28;20855;-82
2022/01/27 15:00:14;;;;;;;6.67;5.40;;;8.40;99.90;;;;;;4955680;28;20511;-85
2022/01/27 15:02:45;;;;;;;5.00;4.57;;;8.30;99.90;;;;;;4972772;28;20464;-82
2022/01/27 15:05:20;;;;;;;5.80;4.53;;;8.40;99.90;;;;;;4973098;28;20515;-83
2022/01/27 15:07:59;;;;;;;5.50;4.90;;;8.40;99.90;;;;;;4975440;28;20684;-84
2022/01/27 15:10:49;;;;;;;4.87;4.37;;;8.40;99.90;;;;;;4978559;28;20838;-83
2022/01/27 15:13:48;;;;;;;6.13;5.20;;;8.60;99.90;;;;;;4958884;28;20457;-83
2022/01/27 15:22:00;;;;;;;6.40;5.80;;;8.40;99.90;;;;;;4986167;28;20472;-83
2022/01/27 15:24:33;;;;;;;7.83;6.30;;;8.40;99.90;;;;;;4993033;28;20442;-84
2022/01/27 15:27:27;;;;;;;7.77;6.20;;;8.40;99.90;;;;;;4995171;28;20453;-85